CheckWX is a tool to help pilots better visualize weather data.  It is not intended as a substitute for an official pre-flight weather briefing.

06:55:12 UTC

LFPG METAR
Charles de Gaulle International Airport
Paris, France
Current

25 mins ago

LFPG 180630Z 28006KT 9999 FEW030 SCT063 BKN150 04/01 Q1011 NOSIG
Observed
Nov-18 @ 06:30 UTC
Wind
  • 280° at 6 KTS
Visibility
10,000+ meters
Flight Rules
VFR
Cloud Levels
  • Few at 3,000' AGL
  • Scattered at 6,300' AGL
  • Broken at 15,000' AGL
Temperature
C / 39°F
Dewpoint
C / 34°F
Humidity
81%
Altimeter
29.85" Hg
Pressure
1010.92 hPa
Previous

55 mins ago

LFPG 180600Z 27006KT 9999 FEW030 BKN150 BKN200 04/01 Q1011 NOSIG
Observed
Nov-18 @ 06:00 UTC
Wind
  • 270° at 6 KTS
Visibility
10,000+ meters
Flight Rules
VFR
Cloud Levels
  • Few at 3,000' AGL
  • Broken at 15,000' AGL
  • Broken at 20,000' AGL
Temperature
C / 39°F
Dewpoint
C / 34°F
Humidity
81%
Altimeter
29.85" Hg
Pressure
1010.92 hPa
Previous

1 hour ago

LFPG 180530Z 30007KT 9999 FEW023 BKN030 04/01 Q1011 NOSIG
Observed
Nov-18 @ 05:30 UTC
Wind
  • 300° at 7 KTS
Visibility
10,000+ meters
Flight Rules
MVFR
Cloud Levels
  • Few at 2,300' AGL
  • Broken at 3,000' AGL
Temperature
C / 39°F
Dewpoint
C / 34°F
Humidity
81%
Altimeter
29.85" Hg
Pressure
1010.92 hPa